sensor_id;sensor_type;location;lat;lon;timestamp;P1;durP1;ratioP1;P2;durP2;ratioP2
20527;SDS011;23612;50.894;10.700;2023-06-10T00:00:39;9.77;;;6.80;;
20527;SDS011;23612;50.894;10.700;2023-06-10T00:03:08;10.68;;;7.20;;
20527;SDS011;23612;50.894;10.700;2023-06-10T00:05:34;13.38;;;7.40;;
20527;SDS011;23612;50.894;10.700;2023-06-10T00:08:00;10.25;;;6.18;;
20527;SDS011;23612;50.894;10.700;2023-06-10T00:10:32;11.85;;;7.30;;
20527;SDS011;23612;50.894;10.700;2023-06-10T00:12:58;9.18;;;5.75;;
20527;SDS011;23612;50.894;10.700;2023-06-10T00:15:23;11.23;;;6.00;;
20527;SDS011;23612;50.894;10.700;2023-06-10T00:17:49;8.85;;;6.22;;
20527;SDS011;23612;50.894;10.700;2023-06-10T00:20:17;8.35;;;6.03;;
20527;SDS011;23612;50.894;10.700;2023-06-10T00:22:43;8.82;;;6.18;;
20527;SDS011;23612;50.894;10.700;2023-06-10T00:25:10;8.77;;;6.18;;
20527;SDS011;23612;50.894;10.700;2023-06-10T00:27:36;7.65;;;5.68;;
20527;SDS011;23612;50.894;10.700;2023-06-10T00:30:04;6.47;;;5.32;;
20527;SDS011;23612;50.894;10.700;2023-06-10T00:32:32;11.05;;;5.80;;
20527;SDS011;23612;50.894;10.700;2023-06-10T00:34:58;7.03;;;5.03;;
20527;SDS011;23612;50.894;10.700;2023-06-10T00:37:23;7.18;;;5.38;;
20527;SDS011;23612;50.894;10.700;2023-06-10T00:39:49;10.77;;;5.82;;
20527;SDS011;23612;50.894;10.700;2023-06-10T00:42:14;7.38;;;5.43;;
20527;SDS011;23612;50.894;10.700;2023-06-10T00:44:40;7.68;;;6.22;;
20527;SDS011;23612;50.894;10.700;2023-06-10T00:47:05;8.80;;;6.00;;
20527;SDS011;23612;50.894;10.700;2023-06-10T00:49:32;7.97;;;6.18;;
20527;SDS011;23612;50.894;10.700;2023-06-10T00:51:58;9.15;;;6.60;;
20527;SDS011;23612;50.894;10.700;2023-06-10T00:54:23;6.53;;;5.65;;
20527;SDS011;23612;50.894;10.700;2023-06-10T00:56:50;8.30;;;6.32;;
20527;SDS011;23612;50.894;10.700;2023-06-10T00:59:16;9.90;;;5.78;;
20527;SDS011;23612;50.894;10.700;2023-06-10T01:01:42;9.48;;;6.53;;
20527;SDS011;23612;50.894;10.700;2023-06-10T01:04:08;9.52;;;6.50;;
20527;SDS011;23612;50.894;10.700;2023-06-10T01:06:48;10.93;;;6.70;;
20527;SDS011;23612;50.894;10.700;2023-06-10T01:09:30;7.95;;;5.63;;
20527;SDS011;23612;50.894;10.700;2023-06-10T01:12:05;10.05;;;6.20;;
20527;SDS011;23612;50.894;10.700;2023-06-10T01:14:41;8.88;;;6.00;;
20527;SDS011;23612;50.894;10.700;2023-06-10T01:17:09;9.88;;;6.40;;
20527;SDS011;23612;50.894;10.700;2023-06-10T01:19:37;9.07;;;6.43;;
20527;SDS011;23612;50.894;10.700;2023-06-10T01:22:03;9.38;;;6.53;;
20527;SDS011;23612;50.894;10.700;2023-06-10T01:24:28;10.45;;;6.90;;
20527;SDS011;23612;50.894;10.700;2023-06-10T01:26:58;10.07;;;7.80;;
20527;SDS011;23612;50.894;10.700;2023-06-10T01:29:28;9.75;;;7.45;;
20527;SDS011;23612;50.894;10.700;2023-06-10T01:32:12;11.55;;;7.65;;
20527;SDS011;23612;50.894;10.700;2023-06-10T01:34:44;10.10;;;7.22;;
20527;SDS011;23612;50.894;10.700;2023-06-10T01:37:14;10.60;;;7.78;;
20527;SDS011;23612;50.894;10.700;2023-06-10T01:39:43;9.23;;;7.57;;
20527;SDS011;23612;50.894;10.700;2023-06-10T01:42:10;10.00;;;7.53;;
20527;SDS011;23612;50.894;10.700;2023-06-10T01:44:37;11.85;;;8.05;;
20527;SDS011;23612;50.894;10.700;2023-06-10T01:47:04;10.32;;;8.07;;
20527;SDS011;23612;50.894;10.700;2023-06-10T01:49:29;8.70;;;7.40;;
20527;SDS011;23612;50.894;10.700;2023-06-10T01:51:55;8.80;;;7.22;;
20527;SDS011;23612;50.894;10.700;2023-06-10T01:54:20;12.27;;;7.15;;
20527;SDS011;23612;50.894;10.700;2023-06-10T01:56:46;10.82;;;7.72;;
20527;SDS011;23612;50.894;10.700;2023-06-10T01:59:11;10.10;;;8.27;;
20527;SDS011;23612;50.894;10.700;2023-06-10T02:01:37;11.10;;;8.23;;
20527;SDS011;23612;50.894;10.700;2023-06-10T02:04:02;11.60;;;9.13;;
20527;SDS011;23612;50.894;10.700;2023-06-10T02:06:28;10.25;;;8.57;;
20527;SDS011;23612;50.894;10.700;2023-06-10T02:08:53;11.85;;;9.23;;
20527;SDS011;23612;50.894;10.700;2023-06-10T02:11:19;12.60;;;8.70;;
20527;SDS011;23612;50.894;10.700;2023-06-10T02:13:45;12.88;;;9.23;;
20527;SDS011;23612;50.894;10.700;2023-06-10T02:16:10;11.40;;;9.60;;
20527;SDS011;23612;50.894;10.700;2023-06-10T02:18:37;11.73;;;9.35;;
20527;SDS011;23612;50.894;10.700;2023-06-10T02:21:05;13.40;;;9.60;;
20527;SDS011;23612;50.894;10.700;2023-06-10T02:23:31;14.38;;;9.90;;
20527;SDS011;23612;50.894;10.700;2023-06-10T02:25:57;11.07;;;8.93;;
20527;SDS011;23612;50.894;10.700;2023-06-10T02:28:22;13.77;;;10.48;;
20527;SDS011;23612;50.894;10.700;2023-06-10T02:30:48;12.75;;;10.43;;
20527;SDS011;23612;50.894;10.700;2023-06-10T02:33:13;13.82;;;10.32;;
20527;SDS011;23612;50.894;10.700;2023-06-10T02:35:40;12.70;;;10.20;;
20527;SDS011;23612;50.894;10.700;2023-06-10T02:38:06;16.48;;;11.05;;
20527;SDS011;23612;50.894;10.700;2023-06-10T02:40:32;17.27;;;11.13;;
20527;SDS011;23612;50.894;10.700;2023-06-10T02:42:57;15.48;;;9.95;;
20527;SDS011;23612;50.894;10.700;2023-06-10T02:45:23;16.80;;;9.90;;
20527;SDS011;23612;50.894;10.700;2023-06-10T02:47:49;12.30;;;9.93;;
20527;SDS011;23612;50.894;10.700;2023-06-10T02:50:14;12.55;;;10.48;;
20527;SDS011;23612;50.894;10.700;2023-06-10T02:52:40;13.23;;;10.10;;
20527;SDS011;23612;50.894;10.700;2023-06-10T02:55:06;14.52;;;10.38;;
20527;SDS011;23612;50.894;10.700;2023-06-10T02:57:31;14.98;;;11.80;;
20527;SDS011;23612;50.894;10.700;2023-06-10T02:59:57;17.42;;;11.50;;
20527;SDS011;23612;50.894;10.700;2023-06-10T03:02:23;12.70;;;9.63;;
20527;SDS011;23612;50.894;10.700;2023-06-10T03:04:54;16.13;;;10.00;;
20527;SDS011;23612;50.894;10.700;2023-06-10T03:07:20;12.90;;;10.88;;
20527;SDS011;23612;50.894;10.700;2023-06-10T03:09:46;11.60;;;10.40;;
20527;SDS011;23612;50.894;10.700;2023-06-10T03:12:11;15.88;;;10.38;;
20527;SDS011;23612;50.894;10.700;2023-06-10T03:14:37;16.80;;;9.90;;
20527;SDS011;23612;50.894;10.700;2023-06-10T03:17:03;12.60;;;9.85;;
20527;SDS011;23612;50.894;10.700;2023-06-10T03:19:29;14.27;;;10.00;;
20527;SDS011;23612;50.894;10.700;2023-06-10T03:22:11;11.90;;;9.93;;
20527;SDS011;23612;50.894;10.700;2023-06-10T03:24:38;12.95;;;10.48;;
20527;SDS011;23612;50.894;10.700;2023-06-10T03:27:07;17.05;;;10.65;;
20527;SDS011;23612;50.894;10.700;2023-06-10T03:29:33;14.13;;;9.88;;
20527;SDS011;23612;50.894;10.700;2023-06-10T03:31:59;15.38;;;10.32;;
20527;SDS011;23612;50.894;10.700;2023-06-10T03:34:25;13.40;;;10.68;;
20527;SDS011;23612;50.894;10.700;2023-06-10T03:36:50;15.50;;;10.30;;
20527;SDS011;23612;50.894;10.700;2023-06-10T03:39:16;13.43;;;10.23;;
20527;SDS011;23612;50.894;10.700;2023-06-10T03:41:41;11.80;;;9.63;;
20527;SDS011;23612;50.894;10.700;2023-06-10T03:44:07;12.95;;;10.38;;
20527;SDS011;23612;50.894;10.700;2023-06-10T03:46:32;11.88;;;10.48;;
20527;SDS011;23612;50.894;10.700;2023-06-10T03:48:58;13.32;;;10.65;;
20527;SDS011;23612;50.894;10.700;2023-06-10T03:51:25;16.92;;;11.35;;
20527;SDS011;23612;50.894;10.700;2023-06-10T03:53:51;13.77;;;9.63;;
20527;SDS011;23612;50.894;10.700;2023-06-10T03:56:16;14.68;;;10.40;;
20527;SDS011;23612;50.894;10.700;2023-06-10T03:58:42;12.30;;;9.77;;
20527;SDS011;23612;50.894;10.700;2023-06-10T04:01:07;14.43;;;11.00;;
20527;SDS011;23612;50.894;10.700;2023-06-10T04:03:33;14.50;;;10.93;;
20527;SDS011;23612;50.894;10.700;2023-06-10T04:05:59;17.08;;;10.15;;
20527;SDS011;23612;50.894;10.700;2023-06-10T04:08:24;12.15;;;10.18;;
20527;SDS011;23612;50.894;10.700;2023-06-10T04:10:50;13.48;;;10.50;;
20527;SDS011;23612;50.894;10.700;2023-06-10T04:13:15;13.50;;;9.70;;
20527;SDS011;23612;50.894;10.700;2023-06-10T04:15:41;10.70;;;9.60;;
20527;SDS011;23612;50.894;10.700;2023-06-10T04:18:06;16.00;;;10.30;;
20527;SDS011;23612;50.894;10.700;2023-06-10T04:20:32;13.90;;;10.60;;
20527;SDS011;23612;50.894;10.700;2023-06-10T04:22:57;13.95;;;10.43;;
20527;SDS011;23612;50.894;10.700;2023-06-10T04:25:24;15.20;;;10.32;;
20527;SDS011;23612;50.894;10.700;2023-06-10T04:27:51;12.13;;;10.73;;
20527;SDS011;23612;50.894;10.700;2023-06-10T04:30:16;13.00;;;10.10;;
20527;SDS011;23612;50.894;10.700;2023-06-10T04:32:42;12.43;;;9.80;;
20527;SDS011;23612;50.894;10.700;2023-06-10T04:35:08;13.98;;;11.00;;
20527;SDS011;23612;50.894;10.700;2023-06-10T04:37:36;17.17;;;10.45;;
20527;SDS011;23612;50.894;10.700;2023-06-10T04:40:02;13.15;;;10.27;;
20527;SDS011;23612;50.894;10.700;2023-06-10T04:42:28;12.27;;;10.48;;
20527;SDS011;23612;50.894;10.700;2023-06-10T04:44:53;14.57;;;10.95;;
20527;SDS011;23612;50.894;10.700;2023-06-10T04:47:19;13.73;;;10.57;;
20527;SDS011;23612;50.894;10.700;2023-06-10T04:49:45;12.65;;;9.82;;
20527;SDS011;23612;50.894;10.700;2023-06-10T04:52:10;14.05;;;10.50;;
20527;SDS011;23612;50.894;10.700;2023-06-10T04:54:36;17.17;;;10.27;;
20527;SDS011;23612;50.894;10.700;2023-06-10T04:57:01;12.50;;;9.93;;
20527;SDS011;23612;50.894;10.700;2023-06-10T04:59:27;12.57;;;10.10;;
20527;SDS011;23612;50.894;10.700;2023-06-10T05:01:53;11.77;;;9.43;;
20527;SDS011;23612;50.894;10.700;2023-06-10T05:04:19;14.85;;;9.30;;
20527;SDS011;23612;50.894;10.700;2023-06-10T05:06:45;13.82;;;9.80;;
20527;SDS011;23612;50.894;10.700;2023-06-10T05:09:10;12.10;;;9.85;;
20527;SDS011;23612;50.894;10.700;2023-06-10T05:11:36;13.25;;;9.82;;
20527;SDS011;23612;50.894;10.700;2023-06-10T05:14:01;12.80;;;9.13;;
20527;SDS011;23612;50.894;10.700;2023-06-10T05:16:26;15.15;;;9.38;;
20527;SDS011;23612;50.894;10.700;2023-06-10T05:18:52;20.13;;;15.25;;
20527;SDS011;23612;50.894;10.700;2023-06-10T05:21:18;15.73;;;11.38;;
20527;SDS011;23612;50.894;10.700;2023-06-10T05:23:43;15.63;;;10.00;;
20527;SDS011;23612;50.894;10.700;2023-06-10T05:26:09;15.23;;;8.63;;
20527;SDS011;23612;50.894;10.700;2023-06-10T05:28:35;12.05;;;9.75;;
20527;SDS011;23612;50.894;10.700;2023-06-10T05:31:01;11.32;;;8.00;;
20527;SDS011;23612;50.894;10.700;2023-06-10T05:33:26;9.15;;;7.78;;
20527;SDS011;23612;50.894;10.700;2023-06-10T05:35:52;15.20;;;9.68;;
20527;SDS011;23612;50.894;10.700;2023-06-10T05:38:17;13.90;;;8.13;;
20527;SDS011;23612;50.894;10.700;2023-06-10T05:40:43;8.77;;;7.28;;
20527;SDS011;23612;50.894;10.700;2023-06-10T05:43:08;11.18;;;6.85;;
20527;SDS011;23612;50.894;10.700;2023-06-10T05:45:34;9.35;;;6.45;;
20527;SDS011;23612;50.894;10.700;2023-06-10T05:48:00;10.32;;;6.43;;
20527;SDS011;23612;50.894;10.700;2023-06-10T05:50:25;7.50;;;6.55;;
20527;SDS011;23612;50.894;10.700;2023-06-10T05:52:51;10.50;;;6.03;;
20527;SDS011;23612;50.894;10.700;2023-06-10T05:55:18;10.93;;;6.03;;
20527;SDS011;23612;50.894;10.700;2023-06-10T05:57:44;9.05;;;6.72;;
20527;SDS011;23612;50.894;10.700;2023-06-10T06:00:09;13.10;;;6.35;;
20527;SDS011;23612;50.894;10.700;2023-06-10T06:02:35;7.97;;;5.75;;
20527;SDS011;23612;50.894;10.700;2023-06-10T06:05:01;6.68;;;4.85;;
20527;SDS011;23612;50.894;10.700;2023-06-10T06:07:26;10.10;;;5.05;;
20527;SDS011;23612;50.894;10.700;2023-06-10T06:09:52;29.67;;;5.75;;
20527;SDS011;23612;50.894;10.700;2023-06-10T06:12:17;10.18;;;5.53;;
20527;SDS011;23612;50.894;10.700;2023-06-10T06:14:43;8.23;;;5.40;;
20527;SDS011;23612;50.894;10.700;2023-06-10T06:17:09;11.45;;;5.22;;
20527;SDS011;23612;50.894;10.700;2023-06-10T06:19:35;8.80;;;4.90;;
20527;SDS011;23612;50.894;10.700;2023-06-10T06:22:00;10.05;;;4.68;;
20527;SDS011;23612;50.894;10.700;2023-06-10T06:24:26;31.08;;;6.30;;
20527;SDS011;23612;50.894;10.700;2023-06-10T06:26:51;8.75;;;5.00;;
20527;SDS011;23612;50.894;10.700;2023-06-10T06:29:17;11.27;;;5.03;;
20527;SDS011;23612;50.894;10.700;2023-06-10T06:31:43;9.35;;;5.00;;
20527;SDS011;23612;50.894;10.700;2023-06-10T06:34:08;11.80;;;4.95;;
20527;SDS011;23612;50.894;10.700;2023-06-10T06:36:34;9.98;;;5.25;;
20527;SDS011;23612;50.894;10.700;2023-06-10T06:38:59;9.90;;;5.50;;
20527;SDS011;23612;50.894;10.700;2023-06-10T06:41:26;96.45;;;11.13;;
20527;SDS011;23612;50.894;10.700;2023-06-10T06:43:52;11.10;;;4.75;;
20527;SDS011;23612;50.894;10.700;2023-06-10T06:46:18;7.40;;;5.20;;
20527;SDS011;23612;50.894;10.700;2023-06-10T06:48:43;8.48;;;5.45;;
20527;SDS011;23612;50.894;10.700;2023-06-10T06:51:09;9.48;;;5.22;;
20527;SDS011;23612;50.894;10.700;2023-06-10T06:53:34;8.90;;;5.30;;
20527;SDS011;23612;50.894;10.700;2023-06-10T06:56:01;8.13;;;5.35;;
20527;SDS011;23612;50.894;10.700;2023-06-10T06:58:27;9.93;;;5.45;;
20527;SDS011;23612;50.894;10.700;2023-06-10T07:00:53;6.78;;;5.50;;
20527;SDS011;23612;50.894;10.700;2023-06-10T07:03:18;9.65;;;5.50;;
20527;SDS011;23612;50.894;10.700;2023-06-10T07:05:44;23.27;;;6.22;;
20527;SDS011;23612;50.894;10.700;2023-06-10T07:08:09;7.78;;;5.30;;
20527;SDS011;23612;50.894;10.700;2023-06-10T07:10:36;6.80;;;4.85;;
20527;SDS011;23612;50.894;10.700;2023-06-10T07:13:02;6.20;;;5.50;;
20527;SDS011;23612;50.894;10.700;2023-06-10T07:15:28;6.07;;;5.18;;
20527;SDS011;23612;50.894;10.700;2023-06-10T07:17:53;7.70;;;5.25;;
20527;SDS011;23612;50.894;10.700;2023-06-10T07:20:18;7.78;;;5.07;;
20527;SDS011;23612;50.894;10.700;2023-06-10T07:22:44;7.65;;;5.10;;
20527;SDS011;23612;50.894;10.700;2023-06-10T07:25:09;9.93;;;5.43;;
20527;SDS011;23612;50.894;10.700;2023-06-10T07:27:35;7.63;;;5.50;;
20527;SDS011;23612;50.894;10.700;2023-06-10T07:30:02;8.75;;;5.93;;
20527;SDS011;23612;50.894;10.700;2023-06-10T07:32:29;5.97;;;4.93;;
20527;SDS011;23612;50.894;10.700;2023-06-10T07:34:55;7.60;;;5.53;;
20527;SDS011;23612;50.894;10.700;2023-06-10T07:37:20;8.52;;;5.57;;
20527;SDS011;23612;50.894;10.700;2023-06-10T07:39:46;7.50;;;5.20;;
20527;SDS011;23612;50.894;10.700;2023-06-10T07:42:11;11.60;;;6.18;;
20527;SDS011;23612;50.894;10.700;2023-06-10T07:44:37;7.18;;;5.20;;
20527;SDS011;23612;50.894;10.700;2023-06-10T07:47:02;8.75;;;5.07;;
20527;SDS011;23612;50.894;10.700;2023-06-10T07:49:28;6.68;;;5.22;;
20527;SDS011;23612;50.894;10.700;2023-06-10T07:51:54;8.18;;;5.90;;
20527;SDS011;23612;50.894;10.700;2023-06-10T07:54:20;22.27;;;6.13;;
20527;SDS011;23612;50.894;10.700;2023-06-10T07:56:46;12.50;;;6.10;;
20527;SDS011;23612;50.894;10.700;2023-06-10T07:59:11;25.92;;;6.70;;
20527;SDS011;23612;50.894;10.700;2023-06-10T08:01:38;9.48;;;5.25;;
20527;SDS011;23612;50.894;10.700;2023-06-10T08:04:04;6.85;;;5.90;;
20527;SDS011;23612;50.894;10.700;2023-06-10T08:06:30;10.70;;;5.88;;
20527;SDS011;23612;50.894;10.700;2023-06-10T08:08:55;9.95;;;5.90;;
20527;SDS011;23612;50.894;10.700;2023-06-10T08:11:21;12.90;;;6.28;;
20527;SDS011;23612;50.894;10.700;2023-06-10T08:13:46;9.00;;;6.15;;
20527;SDS011;23612;50.894;10.700;2023-06-10T08:16:12;6.88;;;5.50;;
20527;SDS011;23612;50.894;10.700;2023-06-10T08:18:37;6.88;;;5.53;;
20527;SDS011;23612;50.894;10.700;2023-06-10T08:21:03;9.60;;;6.20;;
20527;SDS011;23612;50.894;10.700;2023-06-10T08:23:28;8.73;;;6.20;;
20527;SDS011;23612;50.894;10.700;2023-06-10T08:25:54;7.97;;;5.93;;
20527;SDS011;23612;50.894;10.700;2023-06-10T08:28:19;9.40;;;6.07;;
20527;SDS011;23612;50.894;10.700;2023-06-10T08:30:45;9.05;;;5.43;;
20527;SDS011;23612;50.894;10.700;2023-06-10T08:33:10;6.88;;;5.93;;
20527;SDS011;23612;50.894;10.700;2023-06-10T08:35:36;8.38;;;6.45;;
20527;SDS011;23612;50.894;10.700;2023-06-10T08:38:01;10.98;;;6.40;;
20527;SDS011;23612;50.894;10.700;2023-06-10T08:40:27;7.88;;;5.70;;
20527;SDS011;23612;50.894;10.700;2023-06-10T08:45:47;7.65;;;6.20;;
20527;SDS011;23612;50.894;10.700;2023-06-10T08:48:14;11.93;;;6.53;;
20527;SDS011;23612;50.894;10.700;2023-06-10T08:50:41;13.20;;;6.22;;
20527;SDS011;23612;50.894;10.700;2023-06-10T08:53:07;8.18;;;5.60;;
20527;SDS011;23612;50.894;10.700;2023-06-10T08:55:35;11.68;;;5.93;;
20527;SDS011;23612;50.894;10.700;2023-06-10T08:58:02;6.25;;;5.63;;
20527;SDS011;23612;50.894;10.700;2023-06-10T09:00:28;13.10;;;6.20;;
20527;SDS011;23612;50.894;10.700;2023-06-10T09:02:55;7.35;;;5.80;;
20527;SDS011;23612;50.894;10.700;2023-06-10T09:05:22;10.30;;;5.97;;
20527;SDS011;23612;50.894;10.700;2023-06-10T09:07:48;6.10;;;5.60;;
20527;SDS011;23612;50.894;10.700;2023-06-10T09:10:14;7.03;;;5.68;;
20527;SDS011;23612;50.894;10.700;2023-06-10T09:12:40;10.15;;;6.25;;
20527;SDS011;23612;50.894;10.700;2023-06-10T09:15:06;12.57;;;5.88;;
20527;SDS011;23612;50.894;10.700;2023-06-10T09:17:32;10.02;;;6.03;;
20527;SDS011;23612;50.894;10.700;2023-06-10T09:19:59;8.57;;;5.65;;
20527;SDS011;23612;50.894;10.700;2023-06-10T09:22:27;9.45;;;5.60;;
20527;SDS011;23612;50.894;10.700;2023-06-10T09:25:01;9.93;;;5.80;;
20527;SDS011;23612;50.894;10.700;2023-06-10T09:27:32;8.57;;;6.22;;
20527;SDS011;23612;50.894;10.700;2023-06-10T09:29:58;7.05;;;5.85;;
20527;SDS011;23612;50.894;10.700;2023-06-10T09:32:24;10.77;;;5.60;;
20527;SDS011;23612;50.894;10.700;2023-06-10T09:34:50;6.80;;;5.82;;
20527;SDS011;23612;50.894;10.700;2023-06-10T09:37:24;8.98;;;5.47;;
20527;SDS011;23612;50.894;10.700;2023-06-10T09:42:33;14.20;;;6.35;;
20527;SDS011;23612;50.894;10.700;2023-06-10T09:45:00;12.43;;;6.10;;
20527;SDS011;23612;50.894;10.700;2023-06-10T09:47:27;8.95;;;5.68;;
20527;SDS011;23612;50.894;10.700;2023-06-10T09:49:53;7.68;;;5.40;;
20527;SDS011;23612;50.894;10.700;2023-06-10T09:52:25;9.98;;;5.40;;
20527;SDS011;23612;50.894;10.700;2023-06-10T09:54:51;7.85;;;5.00;;
20527;SDS011;23612;50.894;10.700;2023-06-10T09:57:18;8.30;;;5.53;;
20527;SDS011;23612;50.894;10.700;2023-06-10T09:59:45;9.93;;;5.70;;
20527;SDS011;23612;50.894;10.700;2023-06-10T10:02:14;8.10;;;5.60;;
20527;SDS011;23612;50.894;10.700;2023-06-10T10:04:41;9.90;;;5.32;;
20527;SDS011;23612;50.894;10.700;2023-06-10T10:07:07;11.07;;;5.57;;
20527;SDS011;23612;50.894;10.700;2023-06-10T10:09:33;6.25;;;5.65;;
20527;SDS011;23612;50.894;10.700;2023-06-10T10:12:00;9.70;;;5.43;;
20527;SDS011;23612;50.894;10.700;2023-06-10T10:14:28;12.25;;;5.63;;
20527;SDS011;23612;50.894;10.700;2023-06-10T10:16:57;11.05;;;5.47;;
20527;SDS011;23612;50.894;10.700;2023-06-10T10:19:31;5.85;;;4.82;;
20527;SDS011;23612;50.894;10.700;2023-06-10T10:22:02;8.85;;;5.22;;
20527;SDS011;23612;50.894;10.700;2023-06-10T10:24:35;9.30;;;5.18;;
20527;SDS011;23612;50.894;10.700;2023-06-10T10:27:07;6.40;;;5.13;;
20527;SDS011;23612;50.894;10.700;2023-06-10T10:29:42;23.23;;;6.40;;
20527;SDS011;23612;50.894;10.700;2023-06-10T10:32:12;5.82;;;4.65;;
20527;SDS011;23612;50.894;10.700;2023-06-10T10:35:22;6.82;;;5.05;;
20527;SDS011;23612;50.894;10.700;2023-06-10T10:37:36;7.53;;;5.10;;
20527;SDS011;23612;50.894;10.700;2023-06-10T10:40:02;6.78;;;4.90;;
20527;SDS011;23612;50.894;10.700;2023-06-10T10:42:29;7.45;;;5.18;;
20527;SDS011;23612;50.894;10.700;2023-06-10T10:44:55;7.43;;;4.45;;
20527;SDS011;23612;50.894;10.700;2023-06-10T10:47:21;4.32;;;3.92;;
20527;SDS011;23612;50.894;10.700;2023-06-10T10:49:51;6.63;;;4.50;;
20527;SDS011;23612;50.894;10.700;2023-06-10T10:52:21;13.05;;;4.53;;
20527;SDS011;23612;50.894;10.700;2023-06-10T10:54:46;7.55;;;4.22;;
20527;SDS011;23612;50.894;10.700;2023-06-10T10:59:58;7.78;;;4.50;;
20527;SDS011;23612;50.894;10.700;2023-06-10T11:05:14;8.13;;;4.72;;
20527;SDS011;23612;50.894;10.700;2023-06-10T11:07:40;20.90;;;5.15;;
20527;SDS011;23612;50.894;10.700;2023-06-10T11:10:16;6.30;;;4.70;;
20527;SDS011;23612;50.894;10.700;2023-06-10T11:12:42;8.20;;;4.47;;
20527;SDS011;23612;50.894;10.700;2023-06-10T11:15:24;6.85;;;4.93;;
20527;SDS011;23612;50.894;10.700;2023-06-10T11:23:25;7.15;;;4.88;;
20527;SDS011;23612;50.894;10.700;2023-06-10T11:28:39;14.18;;;4.82;;
20527;SDS011;23612;50.894;10.700;2023-06-10T11:31:06;11.52;;;5.10;;
20527;SDS011;23612;50.894;10.700;2023-06-10T11:33:31;5.88;;;4.70;;
20527;SDS011;23612;50.894;10.700;2023-06-10T11:35:57;7.45;;;5.13;;
20527;SDS011;23612;50.894;10.700;2023-06-10T11:38:23;13.35;;;5.55;;
20527;SDS011;23612;50.894;10.700;2023-06-10T11:40:49;17.05;;;5.30;;
20527;SDS011;23612;50.894;10.700;2023-06-10T11:43:19;8.77;;;5.78;;
20527;SDS011;23612;50.894;10.700;2023-06-10T11:45:45;13.25;;;5.55;;
20527;SDS011;23612;50.894;10.700;2023-06-10T11:48:11;8.95;;;5.88;;
20527;SDS011;23612;50.894;10.700;2023-06-10T11:50:38;7.93;;;6.30;;
20527;SDS011;23612;50.894;10.700;2023-06-10T11:53:04;6.75;;;6.13;;
20527;SDS011;23612;50.894;10.700;2023-06-10T11:55:42;11.07;;;6.82;;
20527;SDS011;23612;50.894;10.700;2023-06-10T11:58:16;11.85;;;7.00;;
20527;SDS011;23612;50.894;10.700;2023-06-10T12:00:49;10.80;;;6.70;;
20527;SDS011;23612;50.894;10.700;2023-06-10T12:03:19;6.90;;;6.15;;
20527;SDS011;23612;50.894;10.700;2023-06-10T12:05:59;55.85;;;8.70;;
20527;SDS011;23612;50.894;10.700;2023-06-10T12:08:25;6.60;;;5.68;;
20527;SDS011;23612;50.894;10.700;2023-06-10T12:10:52;9.10;;;6.47;;
20527;SDS011;23612;50.894;10.700;2023-06-10T12:13:18;12.88;;;6.18;;
20527;SDS011;23612;50.894;10.700;2023-06-10T12:15:44;10.98;;;6.32;;
20527;SDS011;23612;50.894;10.700;2023-06-10T12:18:19;9.60;;;6.40;;
20527;SDS011;23612;50.894;10.700;2023-06-10T12:20:46;8.35;;;6.05;;
20527;SDS011;23612;50.894;10.700;2023-06-10T12:23:12;8.55;;;6.53;;
20527;SDS011;23612;50.894;10.700;2023-06-10T12:25:38;7.25;;;5.65;;
20527;SDS011;23612;50.894;10.700;2023-06-10T12:28:04;10.45;;;6.50;;
20527;SDS011;23612;50.894;10.700;2023-06-10T12:30:31;10.63;;;6.88;;
20527;SDS011;23612;50.894;10.700;2023-06-10T12:32:57;13.40;;;6.20;;
20527;SDS011;23612;50.894;10.700;2023-06-10T12:35:26;13.52;;;6.45;;
20527;SDS011;23612;50.894;10.700;2023-06-10T12:40:27;12.15;;;6.45;;
20527;SDS011;23612;50.894;10.700;2023-06-10T12:42:53;8.30;;;6.78;;
20527;SDS011;23612;50.894;10.700;2023-06-10T12:45:27;7.47;;;6.20;;
20527;SDS011;23612;50.894;10.700;2023-06-10T12:48:08;23.67;;;7.88;;
20527;SDS011;23612;50.894;10.700;2023-06-10T12:50:35;9.50;;;6.85;;
20527;SDS011;23612;50.894;10.700;2023-06-10T12:53:02;20.65;;;7.72;;
20527;SDS011;23612;50.894;10.700;2023-06-10T12:55:28;8.30;;;7.32;;
20527;SDS011;23612;50.894;10.700;2023-06-10T12:57:53;10.05;;;7.78;;
20527;SDS011;23612;50.894;10.700;2023-06-10T13:00:20;21.48;;;7.30;;
20527;SDS011;23612;50.894;10.700;2023-06-10T13:02:45;11.55;;;7.43;;
20527;SDS011;23612;50.894;10.700;2023-06-10T13:05:13;16.50;;;7.82;;
20527;SDS011;23612;50.894;10.700;2023-06-10T13:07:38;11.65;;;7.22;;
20527;SDS011;23612;50.894;10.700;2023-06-10T13:10:04;12.70;;;7.82;;
20527;SDS011;23612;50.894;10.700;2023-06-10T13:12:30;11.13;;;7.85;;
20527;SDS011;23612;50.894;10.700;2023-06-10T13:14:56;10.60;;;7.85;;
20527;SDS011;23612;50.894;10.700;2023-06-10T13:17:21;11.25;;;8.27;;
20527;SDS011;23612;50.894;10.700;2023-06-10T13:19:47;12.25;;;8.35;;
20527;SDS011;23612;50.894;10.700;2023-06-10T13:22:13;8.35;;;7.55;;
20527;SDS011;23612;50.894;10.700;2023-06-10T13:24:39;10.15;;;8.38;;
20527;SDS011;23612;50.894;10.700;2023-06-10T13:27:05;11.93;;;8.40;;
20527;SDS011;23612;50.894;10.700;2023-06-10T13:29:31;11.02;;;8.48;;
20527;SDS011;23612;50.894;10.700;2023-06-10T13:31:57;10.88;;;9.10;;
20527;SDS011;23612;50.894;10.700;2023-06-10T13:34:23;11.75;;;8.75;;
20527;SDS011;23612;50.894;10.700;2023-06-10T13:36:48;35.53;;;10.23;;
20527;SDS011;23612;50.894;10.700;2023-06-10T13:39:14;18.13;;;8.73;;
20527;SDS011;23612;50.894;10.700;2023-06-10T13:41:40;14.30;;;8.32;;
20527;SDS011;23612;50.894;10.700;2023-06-10T13:44:06;12.73;;;9.35;;
20527;SDS011;23612;50.894;10.700;2023-06-10T13:46:32;15.75;;;8.80;;
20527;SDS011;23612;50.894;10.700;2023-06-10T13:48:57;11.13;;;8.07;;
20527;SDS011;23612;50.894;10.700;2023-06-10T13:51:23;15.73;;;9.43;;
20527;SDS011;23612;50.894;10.700;2023-06-10T13:53:48;17.48;;;8.75;;
20527;SDS011;23612;50.894;10.700;2023-06-10T13:56:16;12.18;;;8.50;;
20527;SDS011;23612;50.894;10.700;2023-06-10T13:58:42;10.98;;;8.35;;
20527;SDS011;23612;50.894;10.700;2023-06-10T14:01:08;11.05;;;7.75;;
20527;SDS011;23612;50.894;10.700;2023-06-10T14:03:33;11.88;;;8.70;;
20527;SDS011;23612;50.894;10.700;2023-06-10T14:05:59;13.00;;;7.53;;
20527;SDS011;23612;50.894;10.700;2023-06-10T14:08:24;9.02;;;7.82;;
20527;SDS011;23612;50.894;10.700;2023-06-10T14:10:50;9.38;;;7.88;;
20527;SDS011;23612;50.894;10.700;2023-06-10T14:13:18;10.60;;;7.90;;
20527;SDS011;23612;50.894;10.700;2023-06-10T14:15:44;15.63;;;8.20;;
20527;SDS011;23612;50.894;10.700;2023-06-10T14:18:10;10.15;;;7.80;;
20527;SDS011;23612;50.894;10.700;2023-06-10T14:20:35;8.60;;;7.15;;
20527;SDS011;23612;50.894;10.700;2023-06-10T14:23:01;7.72;;;6.90;;
20527;SDS011;23612;50.894;10.700;2023-06-10T14:25:27;14.60;;;7.45;;
20527;SDS011;23612;50.894;10.700;2023-06-10T14:27:52;7.30;;;6.60;;
20527;SDS011;23612;50.894;10.700;2023-06-10T14:30:18;7.50;;;6.13;;
20527;SDS011;23612;50.894;10.700;2023-06-10T14:32:44;10.55;;;6.82;;
20527;SDS011;23612;50.894;10.700;2023-06-10T14:35:09;6.38;;;5.57;;
20527;SDS011;23612;50.894;10.700;2023-06-10T14:37:35;6.90;;;5.82;;
20527;SDS011;23612;50.894;10.700;2023-06-10T14:40:01;7.40;;;5.85;;
20527;SDS011;23612;50.894;10.700;2023-06-10T14:42:28;7.03;;;6.18;;
20527;SDS011;23612;50.894;10.700;2023-06-10T14:44:53;8.40;;;6.72;;